Time;durP1;ratioP1;P1;durP2;ratioP2;P2;SDS_P1;SDS_P2;PMS_P1;PMS_P2;Temp;Humidity;BMP_temperature;BMP_pressure;BME280_temperature;BME280_humidity;BME280_pressure;Samples;Min_cycle;Max_cycle;Signal;HPM_P1;HPM_P2
2022/10/18 00:03:38;;;;;;;0.00;0.00;;;;;;;17.14;62.69;98873.25;8253603;28;20243;-77
2022/10/18 00:07:42;;;;;;;0.00;0.00;;;;;;;17.18;62.62;98869.50;8253124;28;20239;-77
2022/10/18 00:11:45;;;;;;;0.00;0.00;;;;;;;17.09;63.10;98881.34;8253178;28;20227;-76
2022/10/18 00:15:49;;;;;;;0.00;0.00;;;;;;;17.11;62.76;98878.63;8253375;28;20235;-76
2022/10/18 00:19:52;;;;;;;0.00;0.00;;;;;;;17.05;62.73;98873.75;8253500;28;20261;-78
2022/10/18 00:23:57;;;;;;;0.00;0.00;;;;;;;17.08;63.08;98882.28;8253372;28;20250;-77
2022/10/18 00:27:59;;;;;;;0.00;0.00;;;;;;;17.01;63.47;98891.41;8253159;28;20238;-77
2022/10/18 00:32:02;;;;;;;0.00;0.00;;;;;;;16.98;62.95;98896.78;8252937;28;20230;-77
2022/10/18 00:36:05;;;;;;;0.00;0.00;;;;;;;16.96;63.08;98891.66;8252712;28;20225;-77
2022/10/18 00:40:10;;;;;;;0.00;0.00;;;;;;;16.96;62.94;98889.06;8252824;28;20231;-76
2022/10/18 00:44:50;;;;;;;0.00;0.00;;;;;;;16.84;64.05;98888.88;8252408;28;20258;-77
2022/10/18 00:48:55;;;;;;;0.00;0.00;;;;;;;16.89;64.52;98885.09;8252154;28;20285;-77
2022/10/18 00:53:02;;;;;;;0.00;0.00;;;;;;;16.92;64.09;98884.91;8252221;28;20261;-77
2022/10/18 00:57:07;;;;;;;0.00;0.00;;;;;;;16.98;64.26;98874.09;8252193;28;20225;-77
2022/10/18 01:01:10;;;;;;;0.00;0.00;;;;;;;16.89;64.57;98882.47;8251993;28;20234;-77
2022/10/18 01:05:14;;;;;;;0.00;0.00;;;;;;;16.89;65.08;98879.84;8252006;28;20230;-77
2022/10/18 01:09:22;;;;;;;0.00;0.00;;;;;;;16.98;64.36;98888.94;8251700;28;20315;-77
2022/10/18 01:13:38;;;;;;;0.00;0.00;;;;;;;16.99;64.56;98875.78;8251742;28;20428;-77
2022/10/18 01:17:59;;;;;;;0.00;0.00;;;;;;;17.01;64.54;98873.09;8251132;28;20230;-76
2022/10/18 01:22:05;;;;;;;0.00;0.00;;;;;;;16.95;64.55;98871.66;8251634;28;20289;-77
2022/10/18 01:26:24;;;;;;;0.00;0.00;;;;;;;16.87;64.20;98873.88;8251321;28;20237;-77
2022/10/18 01:30:52;;;;;;;0.00;0.00;;;;;;;16.87;64.19;98866.03;8250828;28;20230;-76
2022/10/18 01:34:58;;;;;;;0.00;0.00;;;;;;;16.90;64.43;98862.38;8219049;28;20245;-77
2022/10/18 01:39:04;;;;;;;0.00;0.00;;;;;;;16.86;65.18;98859.09;8219071;28;20228;-77
2022/10/18 01:43:08;;;;;;;0.00;0.00;;;;;;;16.88;65.23;98851.16;8218933;28;20402;-77
2022/10/18 01:47:14;;;;;;;0.00;0.00;;;;;;;16.89;65.15;98853.69;8218500;28;20238;-77
2022/10/18 01:51:19;;;;;;;0.00;0.00;;;;;;;16.87;65.06;98846.84;8218615;28;20230;-77
2022/10/18 01:55:26;;;;;;;0.00;0.00;;;;;;;16.78;66.29;98854.25;8218150;28;20239;-77
2022/10/18 01:59:38;;;;;;;0.00;0.00;;;;;;;16.78;66.61;98843.78;8218628;28;20305;-77
2022/10/18 02:03:45;;;;;;;0.00;0.00;;;;;;;16.80;66.28;98839.31;8250024;28;20242;-77
2022/10/18 02:07:51;;;;;;;0.00;0.00;;;;;;;16.81;66.57;98838.41;8250195;28;20241;-77
2022/10/18 02:12:14;;;;;;;0.00;0.00;;;;;;;16.74;66.79;98847.50;8249806;28;20234;-76
2022/10/18 02:16:20;;;;;;;0.00;0.00;;;;;;;16.67;67.10;98847.94;8250181;28;20497;-77
2022/10/18 02:20:26;;;;;;;0.00;0.00;;;;;;;16.77;66.49;98855.19;8249311;28;20235;-77
2022/10/18 02:24:33;;;;;;;0.00;0.00;;;;;;;16.62;67.13;98856.03;8248114;28;20252;-77
2022/10/18 02:28:36;;;;;;;0.00;0.00;;;;;;;16.60;67.09;98848.28;8249764;28;20241;-76
2022/10/18 02:32:41;;;;;;;0.00;0.00;;;;;;;16.63;66.83;98857.72;8248899;28;20401;-77
2022/10/18 02:36:47;;;;;;;0.00;0.00;;;;;;;16.58;67.03;98863.22;8249623;28;20277;-77
2022/10/18 02:40:50;;;;;;;0.00;0.00;;;;;;;16.55;66.84;98858.13;8249870;28;20236;-77
2022/10/18 02:44:53;;;;;;;0.00;0.00;;;;;;;16.54;66.65;98866.91;8248895;28;20456;-77
2022/10/18 02:48:56;;;;;;;0.00;0.00;;;;;;;16.58;67.18;98864.97;8249671;28;20288;-77
2022/10/18 02:53:00;;;;;;;0.00;0.00;;;;;;;16.55;67.61;98862.53;8240293;28;20273;-77
2022/10/18 02:57:02;;;;;;;0.00;0.00;;;;;;;16.54;67.23;98851.19;8249502;28;20226;-77
2022/10/18 03:01:05;;;;;;;0.00;0.00;;;;;;;16.61;66.84;98849.94;8249189;28;20230;-77
2022/10/18 03:05:08;;;;;;;0.00;0.00;;;;;;;16.56;66.96;98862.44;8249620;28;20281;-77
2022/10/18 03:09:13;;;;;;;0.00;0.00;;;;;;;16.61;67.08;98860.41;8252197;28;20245;-77
2022/10/18 03:13:15;;;;;;;0.00;0.00;;;;;;;16.61;66.68;98846.50;8255168;28;20537;-77
2022/10/18 03:17:18;;;;;;;0.00;0.00;;;;;;;16.56;67.57;98840.66;8255253;28;20241;-78
2022/10/18 03:21:21;;;;;;;0.10;0.10;;;;;;;16.61;66.92;98841.28;8224221;28;20572;-77
2022/10/18 03:25:25;;;;;;;0.00;0.00;;;;;;;16.64;67.43;98841.13;8223068;28;20518;-77
2022/10/18 03:29:28;;;;;;;0.00;0.00;;;;;;;16.69;66.78;98840.84;8223046;28;20230;-78
2022/10/18 03:33:31;;;;;;;0.00;0.00;;;;;;;16.41;68.00;98845.81;8222642;28;20235;-77
2022/10/18 03:37:34;;;;;;;0.00;0.00;;;;;;;16.60;66.93;98835.19;8222751;28;20231;-78
2022/10/18 03:41:38;;;;;;;0.00;0.00;;;;;;;16.56;66.93;98835.44;8222412;28;20231;-78
2022/10/18 03:45:41;;;;;;;0.00;0.00;;;;;;;16.15;69.61;98835.94;8253647;28;20249;-77
2022/10/18 03:49:44;;;;;;;0.00;0.00;;;;;;;16.23;68.67;98831.97;8254045;28;20241;-77
2022/10/18 03:53:46;;;;;;;0.00;0.00;;;;;;;16.31;68.83;98833.31;8254056;28;20250;-77
2022/10/18 03:57:51;;;;;;;0.00;0.00;;;;;;;16.35;68.08;98832.22;8253939;28;20238;-77
2022/10/18 04:01:53;;;;;;;0.00;0.00;;;;;;;16.33;68.39;98824.47;8253820;28;20246;-77
2022/10/18 04:05:59;;;;;;;0.00;0.00;;;;;;;16.49;67.14;98832.34;8253916;28;20234;-77
2022/10/18 04:10:02;;;;;;;0.00;0.00;;;;;;;16.45;67.64;98833.44;8253393;28;20237;-78
2022/10/18 04:14:06;;;;;;;0.00;0.00;;;;;;;16.55;67.39;98836.38;8253311;28;20238;-77
2022/10/18 04:18:09;;;;;;;0.00;0.00;;;;;;;16.58;67.22;98825.72;8252501;28;20440;-77
2022/10/18 04:22:11;;;;;;;0.00;0.00;;;;;;;16.58;67.43;98828.34;8253151;28;20239;-77
2022/10/18 04:26:15;;;;;;;0.00;0.00;;;;;;;16.57;67.16;98822.28;8252821;28;20257;-77
2022/10/18 04:30:19;;;;;;;0.00;0.00;;;;;;;16.61;66.93;98828.19;8253002;28;20233;-77
2022/10/18 04:34:22;;;;;;;0.00;0.00;;;;;;;16.59;66.75;98823.03;8251997;28;20234;-77
2022/10/18 04:38:24;;;;;;;0.00;0.00;;;;;;;16.53;66.85;98815.53;8252041;28;20325;-77
2022/10/18 04:42:27;;;;;;;0.00;0.00;;;;;;;16.42;68.17;98816.13;8251727;28;20547;-77
2022/10/18 04:46:31;;;;;;;0.00;0.00;;;;;;;16.31;68.42;98813.25;8251611;28;20278;-75
2022/10/18 04:50:34;;;;;;;0.00;0.00;;;;;;;16.53;67.25;98818.16;8251318;28;20250;-76
2022/10/18 04:54:37;;;;;;;0.10;0.10;;;;;;;16.51;67.48;98814.78;8251036;28;20245;-77
2022/10/18 04:58:39;;;;;;;0.00;0.00;;;;;;;16.44;67.11;98816.03;8218778;28;20425;-75
2022/10/18 05:02:44;;;;;;;0.00;0.00;;;;;;;16.47;67.25;98813.28;8219233;28;20568;-77
2022/10/18 05:06:47;;;;;;;0.00;0.00;;;;;;;16.48;66.90;98807.09;8219080;28;20246;-76
2022/10/18 05:10:49;;;;;;;0.00;0.00;;;;;;;16.49;67.21;98793.13;8218904;28;20262;-76
2022/10/18 05:14:52;;;;;;;0.00;0.00;;;;;;;16.16;68.50;98798.41;8218714;28;20239;-76
2022/10/18 05:18:59;;;;;;;0.00;0.00;;;;;;;16.40;67.21;98794.44;8218358;28;20251;-76
2022/10/18 05:23:02;;;;;;;0.00;0.00;;;;;;;16.27;68.26;98795.22;8218051;28;20235;-77
2022/10/18 05:27:04;;;;;;;0.00;0.00;;;;;;;16.37;67.98;98793.78;8218148;28;20226;-75
2022/10/18 05:31:10;;;;;;;0.00;0.00;;;;;;;16.36;67.97;98792.09;8217729;28;20231;-76
2022/10/18 05:35:14;;;;;;;0.00;0.00;;;;;;;16.36;67.64;98792.94;8217799;28;20234;-75
2022/10/18 05:39:17;;;;;;;0.03;0.03;;;;;;;16.47;67.03;98788.88;8218127;28;20231;-75
2022/10/18 05:43:21;;;;;;;0.00;0.00;;;;;;;16.38;68.06;98798.94;8217083;28;20298;-75
2022/10/18 05:47:25;;;;;;;0.00;0.00;;;;;;;16.46;67.55;98798.50;8216986;28;20542;-75
2022/10/18 05:51:29;;;;;;;0.00;0.00;;;;;;;16.01;69.38;98802.69;8217523;28;20226;-75
2022/10/18 05:55:32;;;;;;;0.00;0.00;;;;;;;16.28;68.44;98800.38;8217798;28;20534;-75
2022/10/18 05:59:35;;;;;;;0.00;0.00;;;;;;;16.46;67.59;98802.91;8217809;28;20243;-76
2022/10/18 06:03:38;;;;;;;0.00;0.00;;;;;;;15.46;72.29;98795.94;8249401;28;20234;-74
2022/10/18 06:07:43;;;;;;;0.00;0.00;;;;;;;16.15;69.34;98797.56;8248928;28;20259;-75
2022/10/18 06:11:46;;;;;;;0.00;0.00;;;;;;;16.38;68.22;98804.16;8248391;28;20238;-75
2022/10/18 06:15:49;;;;;;;0.07;0.07;;;;;;;16.26;68.97;98817.03;8249205;28;20245;-76
2022/10/18 06:19:52;;;;;;;0.00;0.00;;;;;;;16.10;69.71;98812.63;8249204;28;20509;-76
2022/10/18 06:23:58;;;;;;;0.00;0.00;;;;;;;16.23;68.92;98812.84;8249221;28;20241;-76
2022/10/18 06:28:00;;;;;;;0.00;0.00;;;;;;;16.07;70.03;98810.22;8249569;28;20236;-77
2022/10/18 06:32:03;;;;;;;0.00;0.00;;;;;;;16.40;68.71;98811.91;8249648;28;20230;-77
2022/10/18 06:36:07;;;;;;;0.00;0.00;;;;;;;16.38;69.28;98826.84;8249186;28;20234;-76
2022/10/18 06:40:13;;;;;;;0.00;0.00;;;;;;;16.48;68.78;98816.72;8249320;28;20522;-76
2022/10/18 06:44:16;;;;;;;0.00;0.00;;;;;;;16.51;69.12;98813.97;8254485;28;20410;-76
2022/10/18 06:48:20;;;;;;;0.00;0.00;;;;;;;16.44;68.93;98821.28;8255962;28;20229;-76
2022/10/18 06:52:24;;;;;;;0.00;0.00;;;;;;;16.32;69.94;98816.72;8255687;28;20238;-76
2022/10/18 06:56:28;;;;;;;0.07;0.07;;;;;;;16.44;69.80;98808.19;8255451;28;20581;-76
2022/10/18 07:00:31;;;;;;;0.00;0.00;;;;;;;16.36;69.82;98811.25;8255293;28;20234;-77
2022/10/18 07:04:34;;;;;;;0.00;0.00;;;;;;;16.41;70.31;98809.22;8255317;28;20257;-78
2022/10/18 07:08:38;;;;;;;0.00;0.00;;;;;;;16.46;69.07;98815.97;8255247;28;20245;-78
2022/10/18 07:12:42;;;;;;;0.00;0.00;;;;;;;16.70;68.88;98814.63;8254530;28;20230;-78
2022/10/18 07:16:47;;;;;;;0.00;0.00;;;;;;;16.71;67.95;98823.28;8254664;28;20233;-78
2022/10/18 07:20:50;;;;;;;0.00;0.00;;;;;;;16.91;67.52;98827.44;8254660;28;20251;-79
2022/10/18 07:24:53;;;;;;;0.00;0.00;;;;;;;16.91;67.97;98830.91;8254608;28;20342;-80
2022/10/18 07:28:59;;;;;;;0.00;0.00;;;;;;;17.34;66.86;98827.59;8254487;28;20250;-76
2022/10/18 07:33:02;;;;;;;0.00;0.00;;;;;;;17.30;66.61;98831.31;8253858;28;20246;-77
2022/10/18 07:37:04;;;;;;;0.00;0.00;;;;;;;17.37;66.81;98825.63;8253889;28;20238;-77
2022/10/18 07:41:08;;;;;;;0.00;0.00;;;;;;;17.18;68.06;98825.84;8254489;28;20250;-77
2022/10/18 07:45:14;;;;;;;0.00;0.00;;;;;;;17.98;65.88;98817.69;8254451;28;20229;-77
2022/10/18 07:49:18;;;;;;;0.00;0.00;;;;;;;19.17;68.65;98832.03;8253657;28;20238;-75
2022/10/18 07:53:21;;;;;;;0.00;0.00;;;;;;;19.70;67.14;98824.13;8253372;28;20231;-75
2022/10/18 07:57:24;;;;;;;0.00;0.00;;;;;;;20.11;62.13;98838.88;8253381;28;20239;-75
2022/10/18 08:01:28;;;;;;;0.00;0.00;;;;;;;19.47;60.87;98838.81;8253851;28;20240;-76
2022/10/18 08:05:31;;;;;;;0.00;0.00;;;;;;;19.44;61.93;98832.00;8253809;28;20567;-74
2022/10/18 08:09:39;;;;;;;0.00;0.00;;;;;;;19.53;61.16;98839.28;8253254;28;20436;-72
2022/10/18 08:13:42;;;;;;;0.00;0.00;;;;;;;20.18;59.84;98847.16;8253482;28;20236;-76
2022/10/18 08:17:47;;;;;;;0.00;0.00;;;;;;;21.04;57.43;98844.53;8253391;28;20556;-77
2022/10/18 08:21:49;;;;;;;0.00;0.00;;;;;;;21.50;56.15;98842.09;8253333;28;20240;-79
2022/10/18 08:25:52;;;;;;;0.00;0.00;;;;;;;21.88;54.76;98846.25;8252939;28;20241;-77
2022/10/18 08:29:55;;;;;;;0.00;0.00;;;;;;;21.56;55.79;98850.34;8253159;28;20238;-75
2022/10/18 08:33:59;;;;;;;0.00;0.00;;;;;;;21.55;55.98;98845.19;8252763;28;20256;-77
2022/10/18 08:38:02;;;;;;;0.00;0.00;;;;;;;22.57;54.28;98848.75;8252856;28;20307;-76
2022/10/18 08:42:16;;;;;;;0.00;0.00;;;;;;;23.07;52.36;98843.84;8252709;28;20226;-77
2022/10/18 08:46:19;;;;;;;0.00;0.00;;;;;;;23.21;52.67;98843.56;8252817;28;20234;-78
2022/10/18 08:50:27;;;;;;;0.00;0.00;;;;;;;23.59;52.02;98834.22;8252828;28;20546;-75
2022/10/18 08:54:33;;;;;;;0.00;0.00;;;;;;;24.19;50.22;98836.22;8252395;28;20247;-77
2022/10/18 08:58:36;;;;;;;0.00;0.00;;;;;;;23.65;51.77;98834.69;8252160;28;20238;-77
2022/10/18 09:02:51;;;;;;;0.00;0.00;;;;;;;23.95;51.24;98840.03;8252099;28;20289;-76
2022/10/18 09:07:06;;;;;;;0.00;0.00;;;;;;;24.45;50.28;98836.59;8251789;28;20239;-76
2022/10/18 09:11:19;;;;;;;0.00;0.00;;;;;;;23.90;50.41;98836.94;8251641;28;20240;-76
2022/10/18 09:15:27;;;;;;;0.00;0.00;;;;;;;23.68;51.73;98827.31;8251723;28;20237;-78
2022/10/18 09:19:44;;;;;;;0.00;0.00;;;;;;;23.34;52.86;98835.47;8251408;28;20236;-76
2022/10/18 09:23:49;;;;;;;0.00;0.00;;;;;;;23.43;52.75;98839.13;8250816;28;20539;-76
2022/10/18 09:27:54;;;;;;;0.00;0.00;;;;;;;23.49;51.81;98843.06;8251417;28;20239;-76
2022/10/18 09:32:03;;;;;;;0.00;0.00;;;;;;;23.39;51.37;98864.13;8250978;28;20262;-77
2022/10/18 09:36:08;;;;;;;0.00;0.00;;;;;;;23.86;50.51;98853.22;8251114;28;20235;-77
2022/10/18 09:40:17;;;;;;;0.00;0.00;;;;;;;24.29;48.48;98862.72;8251166;28;20542;-77
2022/10/18 09:44:23;;;;;;;0.00;0.00;;;;;;;23.37;50.53;98858.97;8250957;28;20535;-78
2022/10/18 09:48:28;;;;;;;0.00;0.00;;;;;;;23.00;50.84;98851.41;8250467;28;20236;-77
2022/10/18 09:52:38;;;;;;;0.00;0.00;;;;;;;22.90;51.59;98855.75;8251320;28;20458;-77
2022/10/18 09:56:46;;;;;;;0.00;0.00;;;;;;;22.79;52.68;98859.28;8247320;28;20234;-75
2022/10/18 10:00:51;;;;;;;0.00;0.00;;;;;;;22.19;53.77;98863.97;8250436;28;20230;-76
2022/10/18 10:04:55;;;;;;;0.00;0.00;;;;;;;22.41;54.05;98865.81;8250371;28;20241;-77
2022/10/18 10:09:01;;;;;;;0.00;0.00;;;;;;;22.31;54.15;98853.47;8249979;28;20319;-74
2022/10/18 10:13:07;;;;;;;0.00;0.00;;;;;;;22.30;54.80;98857.06;8250027;28;20230;-76
2022/10/18 10:17:22;;;;;;;0.00;0.00;;;;;;;22.23;55.46;98851.38;8249639;28;20243;-76
2022/10/18 10:21:25;;;;;;;0.00;0.00;;;;;;;22.13;55.52;98861.00;8250166;28;20549;-76
2022/10/18 10:25:31;;;;;;;0.00;0.00;;;;;;;22.14;55.85;98860.88;8249916;28;20244;-76
2022/10/18 10:29:50;;;;;;;0.00;0.00;;;;;;;22.10;56.73;98861.22;8250028;28;20241;-76
2022/10/18 10:33:59;;;;;;;0.00;0.00;;;;;;;21.84;56.56;98856.19;8249649;28;20234;-76
2022/10/18 10:38:02;;;;;;;0.00;0.00;;;;;;;21.67;57.72;98855.66;8249553;28;20244;-75
2022/10/18 10:42:04;;;;;;;0.00;0.00;;;;;;;21.36;58.51;98857.09;8249215;28;20226;-75
2022/10/18 10:46:17;;;;;;;0.00;0.00;;;;;;;21.40;58.61;98855.06;8249231;28;20233;-75
2022/10/18 10:50:24;;;;;;;0.00;0.00;;;;;;;21.36;58.86;98862.38;8249003;28;20231;-76
2022/10/18 10:54:28;;;;;;;0.00;0.00;;;;;;;21.13;61.12;98857.97;8248955;28;20235;-76
2022/10/18 10:58:36;;;;;;;0.00;0.00;;;;;;;21.07;61.76;98864.50;8248971;28;20513;-77
2022/10/18 11:02:40;;;;;;;0.00;0.00;;;;;;;21.03;62.73;98858.63;8248509;28;20506;-76
2022/10/18 11:06:58;;;;;;;0.00;0.00;;;;;;;20.86;64.75;98883.53;8248858;28;20234;-76
2022/10/18 11:11:07;;;;;;;0.00;0.00;;;;;;;20.56;65.47;98868.16;8248430;28;20234;-75
2022/10/18 11:15:19;;;;;;;0.00;0.00;;;;;;;20.43;67.28;98865.56;8248961;28;20244;-76
2022/10/18 11:19:32;;;;;;;0.00;0.00;;;;;;;20.44;67.75;98861.94;8248858;28;20237;-75
2022/10/18 11:23:37;;;;;;;0.00;0.00;;;;;;;20.67;66.80;98855.06;8248928;28;20545;-75
2022/10/18 11:27:41;;;;;;;0.00;0.00;;;;;;;20.95;66.73;98849.63;8248263;28;20240;-74
2022/10/18 11:31:52;;;;;;;0.00;0.00;;;;;;;21.14;66.42;98847.31;8253654;28;20458;-80
2022/10/18 11:36:03;;;;;;;0.00;0.00;;;;;;;21.16;66.58;98848.03;8254210;28;20238;-75
2022/10/18 11:40:15;;;;;;;0.00;0.00;;;;;;;20.98;67.10;98836.22;8254117;28;20237;-75
2022/10/18 11:44:23;;;;;;;0.00;0.00;;;;;;;20.91;68.13;98835.00;8254105;28;20234;-76
2022/10/18 11:48:40;;;;;;;0.00;0.00;;;;;;;20.85;67.91;98841.56;8253950;28;20428;-75
2022/10/18 11:52:51;;;;;;;0.00;0.00;;;;;;;20.91;67.97;98827.13;8253508;28;20238;-76
2022/10/18 11:57:00;;;;;;;0.00;0.00;;;;;;;20.96;68.19;98830.22;8253525;28;20238;-75
2022/10/18 12:01:11;;;;;;;0.00;0.00;;;;;;;21.23;66.96;98830.84;8253951;28;20230;-77
2022/10/18 12:05:14;;;;;;;0.00;0.00;;;;;;;21.28;66.21;98831.34;8253915;28;20411;-80
2022/10/18 12:09:30;;;;;;;0.00;0.00;;;;;;;21.43;66.95;98821.41;8252010;28;20245;-76
2022/10/18 12:13:37;;;;;;;0.00;0.00;;;;;;;21.66;66.46;98817.06;8253536;28;20238;-77
2022/10/18 12:17:42;;;;;;;0.00;0.00;;;;;;;21.81;66.30;98822.97;8252771;28;20245;-76
2022/10/18 12:21:52;;;;;;;0.00;0.00;;;;;;;21.66;66.20;98818.88;8253021;28;20256;-76
2022/10/18 12:26:00;;;;;;;0.00;0.00;;;;;;;21.47;66.72;98824.69;8252451;28;20268;-79
2022/10/18 12:30:09;;;;;;;0.00;0.00;;;;;;;21.16;67.40;98818.25;8252287;28;20245;-79
2022/10/18 12:34:31;;;;;;;0.00;0.00;;;;;;;21.04;68.51;98825.25;8252381;28;20283;-79
2022/10/18 12:38:36;;;;;;;0.00;0.00;;;;;;;20.98;68.93;98829.19;8252117;28;20238;-80
2022/10/18 12:42:43;;;;;;;0.00;0.00;;;;;;;20.85;69.49;98823.97;8252493;28;20420;-77
2022/10/18 12:46:48;;;;;;;0.00;0.00;;;;;;;20.85;69.96;98828.41;8251829;28;20238;-79
2022/10/18 12:50:58;;;;;;;0.00;0.00;;;;;;;20.65;69.81;98832.47;8251405;28;20471;-80
2022/10/18 12:55:06;;;;;;;0.00;0.00;;;;;;;20.78;69.60;98824.53;8251669;28;20261;-78
2022/10/18 12:59:42;;;;;;;0.00;0.00;;;;;;;20.82;69.65;98820.72;8251689;28;20237;-79
2022/10/18 13:03:55;;;;;;;0.00;0.00;;;;;;;20.97;68.60;98811.69;8178308;28;20245;-80
2022/10/18 13:08:06;;;;;;;0.00;0.00;;;;;;;21.05;69.39;98821.66;8251133;28;20237;-80
2022/10/18 13:12:38;;;;;;;0.00;0.00;;;;;;;20.98;68.57;98820.41;8251203;28;20537;-75
2022/10/18 13:16:45;;;;;;;0.00;0.00;;;;;;;20.98;67.95;98818.66;8250691;28;20417;-74
2022/10/18 13:20:56;;;;;;;0.00;0.00;;;;;;;20.81;67.67;98826.91;8250561;28;20458;-79
2022/10/18 13:25:04;;;;;;;0.00;0.00;;;;;;;20.76;67.65;98837.78;8249746;28;20245;-79
2022/10/18 13:29:22;;;;;;;0.00;0.00;;;;;;;20.69;67.20;98833.91;8250394;28;20521;-79
2022/10/18 13:33:34;;;;;;;0.00;0.00;;;;;;;20.62;66.60;98843.19;8250360;28;20244;-79
2022/10/18 13:37:37;;;;;;;0.00;0.00;;;;;;;20.52;67.61;98843.00;8250210;28;20261;-79
2022/10/18 13:42:14;;;;;;;0.00;0.00;;;;;;;20.58;67.16;98852.25;8249749;28;20235;-79
2022/10/18 13:46:16;;;;;;;0.00;0.00;;;;;;;20.59;66.99;98853.94;8249829;28;20237;-78
2022/10/18 13:50:33;;;;;;;0.00;0.00;;;;;;;20.73;66.71;98858.22;8249856;28;20253;-79
2022/10/18 13:54:51;;;;;;;0.00;0.00;;;;;;;20.67;66.99;98864.78;8249255;28;20540;-79
2022/10/18 13:59:06;;;;;;;0.00;0.00;;;;;;;20.67;66.78;98862.13;8249447;28;20241;-78
2022/10/18 14:03:33;;;;;;;0.00;0.00;;;;;;;20.75;66.24;98866.84;8249650;28;20234;-79
2022/10/18 14:08:01;;;;;;;0.00;0.00;;;;;;;20.59;67.22;98864.47;8249227;28;20346;-79
2022/10/18 14:12:19;;;;;;;0.00;0.00;;;;;;;20.68;65.64;98869.94;8249283;28;20529;-79
2022/10/18 14:16:30;;;;;;;0.00;0.00;;;;;;;20.45;65.31;98863.66;8248879;28;20234;-79
2022/10/18 14:20:35;;;;;;;0.00;0.00;;;;;;;20.57;65.13;98871.63;8249023;28;20238;-80
2022/10/18 14:24:59;;;;;;;0.00;0.00;;;;;;;20.42;64.85;98871.75;8248952;28;20230;-79
2022/10/18 14:29:03;;;;;;;0.00;0.00;;;;;;;20.31;64.51;98872.53;8248827;28;20232;-80
2022/10/18 14:33:24;;;;;;;0.00;0.00;;;;;;;20.45;64.60;98870.72;8249110;28;20453;-79
2022/10/18 14:37:29;;;;;;;0.00;0.00;;;;;;;20.47;65.07;98867.00;8248988;28;20569;-79
2022/10/18 14:41:34;;;;;;;0.00;0.00;;;;;;;20.61;65.21;98863.41;8249114;28;20240;-77
2022/10/18 14:45:37;;;;;;;0.00;0.00;;;;;;;20.61;65.74;98863.41;8249048;28;20245;-79
2022/10/18 14:49:43;;;;;;;0.00;0.00;;;;;;;20.63;65.46;98856.25;8248430;28;20424;-79
2022/10/18 14:53:46;;;;;;;0.00;0.00;;;;;;;20.56;66.29;98847.09;8248988;28;20553;-79
2022/10/18 14:57:51;;;;;;;0.00;0.00;;;;;;;20.53;66.58;98854.38;8248666;28;20230;-79
2022/10/18 15:01:57;;;;;;;0.00;0.00;;;;;;;20.52;66.47;98848.25;8248329;28;20265;-79
2022/10/18 15:06:01;;;;;;;0.00;0.00;;;;;;;20.55;66.96;98850.69;8254552;28;20236;-79
2022/10/18 15:10:05;;;;;;;0.00;0.00;;;;;;;20.53;66.47;98854.38;8254912;28;20541;-78
2022/10/18 15:14:14;;;;;;;0.00;0.00;;;;;;;20.54;66.46;98858.66;8254488;28;20234;-78
2022/10/18 15:18:20;;;;;;;0.00;0.00;;;;;;;20.49;66.92;98859.84;8255511;28;20413;-78
2022/10/18 15:22:24;;;;;;;0.00;0.00;;;;;;;20.50;66.87;98861.53;8255671;28;20289;-76
2022/10/18 15:26:34;;;;;;;0.00;0.00;;;;;;;20.48;67.69;98859.94;8254375;28;20244;-76
2022/10/18 15:30:41;;;;;;;0.00;0.00;;;;;;;20.42;67.42;98861.22;8253870;28;20461;-76
2022/10/18 15:34:44;;;;;;;0.00;0.00;;;;;;;20.40;66.85;98859.66;8221940;28;20242;-76
2022/10/18 15:38:47;;;;;;;0.00;0.00;;;;;;;20.35;67.27;98867.84;8221686;28;20534;-76
2022/10/18 15:42:53;;;;;;;0.00;0.00;;;;;;;20.49;67.97;98869.53;8221732;28;20425;-77
2022/10/18 15:47:19;;;;;;;0.00;0.00;;;;;;;20.34;66.60;98866.19;8221403;28;20255;-75
2022/10/18 15:51:40;;;;;;;0.00;0.00;;;;;;;20.24;67.33;98857.28;8221497;28;20241;-75
2022/10/18 15:55:48;;;;;;;0.00;0.00;;;;;;;20.23;66.71;98866.09;8252617;28;20244;-75
2022/10/18 15:59:53;;;;;;;0.00;0.00;;;;;;;20.19;66.68;98864.63;8252850;28;20252;-75
2022/10/18 16:03:57;;;;;;;0.00;0.00;;;;;;;20.11;67.11;98860.75;8252925;28;20246;-75
2022/10/18 16:07:59;;;;;;;0.00;0.00;;;;;;;19.98;67.26;98865.16;8252655;28;20521;-75
2022/10/18 16:12:03;;;;;;;0.00;0.00;;;;;;;20.00;67.37;98872.97;8252581;28;20234;-74
2022/10/18 16:16:06;;;;;;;0.00;0.00;;;;;;;19.95;67.83;98870.63;8251573;28;20233;-76
2022/10/18 16:20:19;;;;;;;0.00;0.00;;;;;;;19.92;67.48;98870.84;8252209;28;20307;-76
2022/10/18 16:24:22;;;;;;;0.00;0.00;;;;;;;19.84;67.80;98871.38;8252233;28;20230;-76
2022/10/18 16:28:25;;;;;;;0.00;0.00;;;;;;;19.79;68.29;98883.97;8252112;28;20236;-76
2022/10/18 16:32:28;;;;;;;0.00;0.00;;;;;;;19.74;68.39;98878.19;8252225;28;20240;-75
2022/10/18 16:36:33;;;;;;;0.00;0.00;;;;;;;19.71;68.27;98884.47;8251947;28;20545;-76
2022/10/18 16:40:36;;;;;;;0.00;0.00;;;;;;;19.70;68.58;98885.44;8251564;28;20399;-76
2022/10/18 16:44:44;;;;;;;0.00;0.00;;;;;;;19.68;68.64;98889.91;8226048;28;20333;-75
2022/10/18 16:48:47;;;;;;;0.00;0.00;;;;;;;19.63;69.45;98902.53;8219443;28;20238;-75
2022/10/18 16:52:52;;;;;;;0.00;0.00;;;;;;;19.62;69.10;98911.34;8219386;28;20463;-75
2022/10/18 16:56:54;;;;;;;0.00;0.00;;;;;;;19.60;69.30;98920.28;8219139;28;20238;-76
2022/10/18 17:00:58;;;;;;;0.00;0.00;;;;;;;19.59;69.20;98923.84;8218726;28;22122;-76
2022/10/18 17:05:01;;;;;;;0.00;0.00;;;;;;;19.60;69.38;98939.53;8218231;28;20241;-75
2022/10/18 17:09:05;;;;;;;0.00;0.00;;;;;;;19.57;69.48;98936.25;8218312;28;20261;-75
2022/10/18 17:13:07;;;;;;;0.00;0.00;;;;;;;19.26;71.23;98941.72;8218335;28;20260;-75
2022/10/18 17:17:11;;;;;;;0.00;0.00;;;;;;;19.28;71.20;98939.81;8218628;28;20261;-75
2022/10/18 17:21:14;;;;;;;0.00;0.00;;;;;;;19.33;70.87;98944.81;8217423;28;20425;-76
2022/10/18 17:25:19;;;;;;;0.00;0.00;;;;;;;19.39;71.11;98951.44;8218163;28;20230;-76
2022/10/18 17:29:22;;;;;;;0.00;0.00;;;;;;;19.36;71.39;98954.25;8217312;28;20428;-76
2022/10/18 17:33:25;;;;;;;0.00;0.00;;;;;;;19.36;71.17;98952.47;8217829;28;20458;-76
2022/10/18 17:37:27;;;;;;;0.00;0.00;;;;;;;19.38;70.61;98955.00;8217696;28;20231;-76
2022/10/18 17:41:32;;;;;;;0.00;0.00;;;;;;;19.36;71.41;98957.72;8217831;28;20560;-75
2022/10/18 17:45:34;;;;;;;0.00;0.00;;;;;;;19.32;71.13;98958.88;8218076;28;20262;-77
2022/10/18 17:49:37;;;;;;;0.00;0.00;;;;;;;19.32;71.04;98964.13;8217755;28;20238;-74
2022/10/18 17:53:40;;;;;;;0.00;0.00;;;;;;;19.30;71.37;98960.75;8217094;28;20241;-74
2022/10/18 17:57:44;;;;;;;0.00;0.00;;;;;;;19.29;71.83;98961.69;8217531;28;20241;-75
2022/10/18 18:01:47;;;;;;;0.00;0.00;;;;;;;19.25;71.41;98954.97;8217819;28;20539;-75
2022/10/18 18:05:50;;;;;;;0.00;0.00;;;;;;;19.27;71.71;98958.34;8217046;28;20276;-75
2022/10/18 18:09:53;;;;;;;0.00;0.00;;;;;;;19.25;71.34;98958.44;8217115;28;20305;-73
2022/10/18 18:13:58;;;;;;;0.00;0.00;;;;;;;19.23;71.28;98960.31;8217358;28;20264;-75
2022/10/18 18:18:00;;;;;;;0.00;0.00;;;;;;;19.17;71.06;98958.06;8216706;28;20242;-74
2022/10/18 18:22:04;;;;;;;0.10;0.10;;;;;;;19.51;74.61;98967.25;8216812;28;20237;-75
2022/10/18 18:26:07;;;;;;;0.00;0.00;;;;;;;19.60;73.63;98962.34;8216853;28;20244;-76
2022/10/18 18:30:11;;;;;;;0.00;0.00;;;;;;;19.66;72.64;98959.28;8217414;28;20239;-77
2022/10/18 18:34:15;;;;;;;0.00;0.00;;;;;;;19.62;71.60;98961.28;8216836;28;20240;-76
2022/10/18 18:38:17;;;;;;;0.00;0.00;;;;;;;19.47;69.32;98970.16;8218666;28;20234;-76
2022/10/18 18:42:21;;;;;;;0.00;0.00;;;;;;;19.17;69.71;98971.19;8223493;28;20233;-76
2022/10/18 18:46:26;;;;;;;0.00;0.00;;;;;;;19.04;69.67;98971.16;8223357;28;20605;-75
2022/10/18 18:50:30;;;;;;;0.00;0.00;;;;;;;18.96;69.16;98962.88;8223002;28;20237;-75
2022/10/18 18:54:33;;;;;;;0.00;0.00;;;;;;;18.86;69.78;98964.41;8223038;28;20233;-75
2022/10/18 18:58:36;;;;;;;0.00;0.00;;;;;;;18.81;69.44;98964.72;8222901;28;20246;-75
2022/10/18 19:02:41;;;;;;;0.00;0.00;;;;;;;18.83;69.83;98967.22;8222565;28;20235;-75
2022/10/18 19:06:45;;;;;;;0.00;0.00;;;;;;;18.68;69.94;98963.75;8221978;28;20233;-75
2022/10/18 19:10:48;;;;;;;0.00;0.00;;;;;;;18.63;69.87;98965.81;8222161;28;20245;-75
2022/10/18 19:14:51;;;;;;;0.00;0.00;;;;;;;18.59;69.44;98962.53;8222610;28;20237;-75
2022/10/18 19:18:57;;;;;;;0.00;0.00;;;;;;;18.56;69.34;98963.56;8222417;28;20352;-75
2022/10/18 19:23:00;;;;;;;0.00;0.00;;;;;;;18.50;69.68;98960.47;8222148;28;20268;-75